Terminal Aerodrome Forecast
Issued by NWS

Home | Current Version | Previous Version | Text Only | Print | Product List | Glossary On
Versions: 1 2 3 4 5 6 7 8 9 10 11 12 13
710
FTUS46 KSEW 240327 AAA
TAFHQM
TAF AMD
KHQM 240327Z 2403/2424 VRB03KT P6SM SKC
     FM240600 00000KT 6SM BR SCT010
     FM240900 VRB03KT 6SM BR BKN010
     FM241900 24007KT P6SM SCT025=

USA.gov is the U.S. government's official web portal to all federal, state and local government web resources and services.